METAR AND TAF INFORMATION
METAR FOR BIKF
ADDS - METARS form results

(0341 UTC 22 September 2022)
Data provider http://aviationweather.gov/metar/data/
 
METAR text: BIKF 220330Z 29007KT 9999 FEW014 OVC024 09/07 Q0998
Conditions at: BIKF (KEFLAVIK (CIV/MI, IS) observed 0330 UTC 22 September 2022
Temperature: 9.0°C (48°F)
Dewpoint: 7.0°C (45°F) [RH = 87%]
Pressure (altimeter): 29.47 inches Hg (998.0 mb)
Winds: from the WNW (290 degrees) at 8 MPH (7 knots; 3.6 m/s)
Visibility: 6 or more miles (10+ km)
Ceiling: 2400 feet AGL
Clouds: few clouds at 1400 feet AGL
overcast cloud deck at 2400 feet AGL
Weather: no significant weather observed at this time

METAR text: BIKF 220300Z 30007KT 9999 VCSH FEW014 OVC024 09/07 Q0998
Conditions at: BIKF (KEFLAVIK (CIV/MI, IS) observed 0300 UTC 22 September 2022
Temperature: 9.0°C (48°F)
Dewpoint: 7.0°C (45°F) [RH = 87%]
Pressure (altimeter): 29.47 inches Hg (998.0 mb)
Winds: from the WNW (300 degrees) at 8 MPH (7 knots; 3.6 m/s)
Visibility: 6 or more miles (10+ km)
Ceiling: 2400 feet AGL
Clouds: few clouds at 1400 feet AGL
overcast cloud deck at 2400 feet AGL
Weather: VCSH  (showers in vicinity)

Forecast for: BIKF (KEFLAVIK (CIV/MI, IS)
Text: TAF BIKF 220103Z 2203/2303 32010KT 9999 -SHRA FEW010 BKN020 TX10/2214Z TN06/2224Z
Forecast period: 0300 UTC 22 September 2022 to 0300 UTC 23 September 2022
Forecast type: FROM: standard forecast or significant change
Winds: from the NW (320 degrees) at 12 MPH (10 knots; 5.1 m/s)
Visibility: 6 or more miles (10+ km)
Ceiling: 2000 feet AGL
Clouds: few clouds at 1000 feet AGL
broken clouds at 2000 feet AGL
Weather: -SHRA  (light rain showers)
Text: TEMPO 2203/2210 SHRA BKN010CB
Forecast period: 0300 to 1000 UTC 22 September 2022
Forecast type: TEMPORARY: The following changes expected for less than half the time period
Visibility: missing
Ceiling: 1000 feet AGL
Clouds: broken clouds at 1000 feet AGL
Weather: SHRA  (rain showers)

 AIRPORT MAP

 RUNWAY INFORMATION
Runway 02 Runway length 10019 ft Runway width 197 ft
Runway elevation 137 ft Runway displaced threshold 19 ft Runway heading 360
Runway 20 Runway length 10019 ft Runway width 197 ft
Runway elevation 163 ft Runway displaced threshold 19 ft Runway heading 180
Runway 11 Runway length 10056 ft Runway width 197 ft
Runway elevation 111 ft Runway displaced threshold 43 ft Runway heading 90
Runway 29 Runway length 10056 ft Runway width 197 ft
Runway elevation 171 ft Runway displaced threshold 43 ft Runway heading 270

 AIRPORT FREQUENCIES
Type A/G Name AIR GND Frequency 131.9 MHZ
Type APP Name APP Frequency 119.3 MHZ
Type ATIS Name ATIS Frequency 128.3 MHZ
Type DEP Name DEP Frequency 119.3 MHZ
Type GND Name GND Frequency 121.9 MHZ
Type OPS Name BASE OPS Frequency 129 MHZ
Type PMSV Name PMSV METR Frequency 125 MHZ
Type TWR Name TWR Frequency 118.3 MHZ

 AIRPORT NEAR NAVIGATION AIDS
Type VORTAC Name Keflavik Frequency 112000 KHZ
Type NDB Name Keflavik Frequency 392 KHZ
Type NDB Name Oscar Kilo Frequency 364 KHZ